Time;durP1;ratioP1;P1;durP2;ratioP2;P2;SDS_P1;SDS_P2;PMS_P1;PMS_P2;Temp;Humidity;BMP_temperature;BMP_pressure;BME280_temperature;BME280_humidity;BME280_pressure;Samples;Min_cycle;Max_cycle;Signal;HPM_P1;HPM_P2
2021/09/04 00:01:18;;;;;;;10.82;4.90;;;;;;;13.91;59.19;99816.75;1783333;79;20868;-61
2021/09/04 00:03:45;;;;;;;6.90;4.30;;;;;;;13.81;59.25;99816.13;1787683;79;21087;-62
2021/09/04 00:06:11;;;;;;;6.75;4.35;;;;;;;13.67;59.51;99812.45;1783842;79;21123;-62
2021/09/04 00:08:38;;;;;;;9.43;4.47;;;;;;;13.56;59.82;99812.07;1786294;79;20960;-61
2021/09/04 00:11:06;;;;;;;9.65;4.97;;;;;;;13.44;60.12;99808.67;1784790;79;20928;-63
2021/09/04 00:13:34;;;;;;;8.00;5.05;;;;;;;13.32;60.43;99809.60;1785501;79;21423;-61
2021/09/04 00:16:01;;;;;;;8.53;5.72;;;;;;;13.27;60.66;99808.17;1785455;79;21151;-60
2021/09/04 00:18:30;;;;;;;8.75;4.80;;;;;;;13.24;60.79;99812.72;1782976;79;20837;-60
2021/09/04 00:20:57;;;;;;;7.97;4.97;;;;;;;13.23;60.82;99803.00;1788185;79;22155;-62
2021/09/04 00:23:23;;;;;;;9.18;5.47;;;;;;;13.24;60.88;99807.88;1786037;79;20959;-61
2021/09/04 00:25:50;;;;;;;8.53;4.85;;;;;;;13.25;60.96;99804.93;1784467;79;20937;-61
2021/09/04 00:28:16;;;;;;;14.98;5.83;;;;;;;13.29;60.98;99803.89;1783602;78;21103;-61
2021/09/04 00:30:43;;;;;;;9.30;5.60;;;;;;;13.29;60.95;99796.64;1785130;78;20862;-62
2021/09/04 00:33:09;;;;;;;10.88;5.50;;;;;;;13.32;60.92;99802.04;1782105;79;20964;-61
2021/09/04 00:35:36;;;;;;;11.05;5.58;;;;;;;13.30;60.96;99796.91;1786877;79;20881;-61
2021/09/04 00:38:02;;;;;;;10.20;5.55;;;;;;;13.28;61.07;99792.83;1784825;79;20984;-63
2021/09/04 00:40:29;;;;;;;9.70;5.03;;;;;;;13.32;61.15;99797.48;1787787;79;21141;-60
2021/09/04 00:42:56;;;;;;;7.80;4.75;;;;;;;13.37;61.04;99798.62;1784738;79;20889;-60
2021/09/04 00:45:23;;;;;;;13.18;4.90;;;;;;;13.36;61.01;99795.13;1784515;79;21076;-61
2021/09/04 00:48:01;;;;;;;12.23;5.08;;;;;;;13.34;61.04;99795.92;1784452;79;21064;-60
2021/09/04 00:50:29;;;;;;;11.00;5.10;;;;;;;13.30;61.12;99795.56;1784662;79;21016;-61
2021/09/04 00:52:56;;;;;;;8.95;5.53;;;;;;;13.27;61.38;99788.53;1782626;79;21082;-60
2021/09/04 00:55:23;;;;;;;7.45;4.67;;;;;;;13.26;61.49;99783.66;1787407;79;20897;-63
2021/09/04 00:57:50;;;;;;;9.00;4.72;;;;;;;13.30;61.48;99790.72;1785557;79;21038;-62
2021/09/04 01:00:17;;;;;;;8.70;4.85;;;;;;;13.33;61.46;99796.41;1785808;79;21487;-61
2021/09/04 01:02:45;;;;;;;8.03;5.17;;;;;;;13.38;61.43;99798.91;1784710;79;21008;-62
2021/09/04 01:05:11;;;;;;;13.72;6.30;;;;;;;13.42;61.35;99803.55;1785803;79;21310;-61
2021/09/04 01:07:39;;;;;;;11.30;5.50;;;;;;;13.49;61.33;99809.55;1781879;79;21082;-61
2021/09/04 01:10:09;;;;;;;11.18;4.87;;;;;;;13.56;61.37;99811.23;1785428;79;20917;-60
2021/09/04 01:12:37;;;;;;;10.45;5.25;;;;;;;13.62;61.21;99803.52;1784431;79;21403;-62
2021/09/04 01:15:07;;;;;;;9.33;4.83;;;;;;;13.67;61.13;99805.72;1792149;78;20969;-61
2021/09/04 01:17:34;;;;;;;;;;;;;;;13.70;60.95;99809.80;1804899;77;21167;-61
2021/09/04 01:20:04;;;;;;;11.53;5.12;;;;;;;13.74;60.86;99806.08;1800107;78;20105;-60
2021/09/04 01:22:32;;;;;;;8.00;5.03;;;;;;;13.76;60.79;99807.44;1803127;78;21552;-61
2021/09/04 01:25:03;;;;;;;10.08;4.72;;;;;;;13.79;60.67;99804.23;1798904;78;21451;-61
2021/09/04 01:27:30;;;;;;;9.50;4.80;;;;;;;13.83;60.64;99804.55;1803815;78;21020;-61
2021/09/04 01:29:56;;;;;;;7.87;4.65;;;;;;;13.84;60.55;99802.95;1782570;78;21060;-61
2021/09/04 01:32:23;;;;;;;8.83;4.37;;;;;;;13.88;60.53;99803.79;1802072;78;21789;-61
2021/09/04 01:34:50;;;;;;;7.60;4.35;;;;;;;13.90;60.55;99802.48;1799146;78;21031;-60
2021/09/04 01:37:16;;;;;;;8.38;4.62;;;;;;;13.91;60.74;99805.43;1801260;78;21030;-61
2021/09/04 01:39:43;;;;;;;11.20;4.62;;;;;;;13.91;60.76;99799.23;1805276;78;20979;-61
2021/09/04 01:42:09;;;;;;;10.85;5.08;;;;;;;13.88;60.71;99793.02;1802355;78;21925;-61
2021/09/04 01:44:36;;;;;;;6.85;4.03;;;;;;;13.84;60.83;99796.77;1802172;78;20979;-61
2021/09/04 01:47:03;;;;;;;10.48;5.12;;;;;;;13.82;60.89;99801.06;1802222;78;20916;-60
2021/09/04 01:49:30;;;;;;;9.50;5.12;;;;;;;13.80;60.93;99796.44;1800230;78;21003;-59
2021/09/04 01:51:58;;;;;;;8.98;4.65;;;;;;;13.78;61.17;99801.79;1800348;78;20912;-61
2021/09/04 01:54:25;;;;;;;12.37;4.80;;;;;;;13.76;61.32;99800.70;1800225;78;21871;-61
2021/09/04 01:56:51;;;;;;;11.78;4.97;;;;;;;13.76;61.36;99799.35;1804007;78;20920;-61
2021/09/04 01:59:18;;;;;;;7.83;4.30;;;;;;;13.77;61.49;99798.30;1802189;78;21710;-62
2021/09/04 02:01:44;;;;;;;9.30;4.87;;;;;;;13.79;61.49;99795.34;1801349;78;20960;-60
2021/09/04 02:04:11;;;;;;;10.65;4.80;;;;;;;13.79;61.47;99797.49;1799269;78;20967;-61
2021/09/04 02:06:38;;;;;;;11.20;5.30;;;;;;;13.82;61.46;99796.19;1801467;78;21134;-60
2021/09/04 02:09:05;;;;;;;10.10;5.05;;;;;;;13.83;61.47;99794.58;1802035;78;21022;-61
2021/09/04 02:11:32;;;;;;;9.90;4.40;;;;;;;13.86;61.50;99790.58;1802110;78;20921;-62
2021/09/04 02:13:58;;;;;;;13.40;5.95;;;;;;;13.86;61.43;99793.27;1800022;78;21035;-61
2021/09/04 02:16:26;;;;;;;8.43;4.45;;;;;;;13.87;61.31;99790.86;1787312;78;21070;-61
2021/09/04 02:18:55;;;;;;;8.88;4.87;;;;;;;13.85;61.18;99788.94;1787679;79;21142;-60
2021/09/04 02:21:21;;;;;;;11.00;5.33;;;;;;;13.83;61.10;99777.07;1786321;79;20928;-62
2021/09/04 02:23:49;;;;;;;8.55;4.65;;;;;;;13.82;61.16;99778.16;1786476;79;20929;-61
2021/09/04 02:26:15;;;;;;;11.68;5.87;;;;;;;13.80;61.14;99777.58;1785266;79;20920;-61
2021/09/04 02:28:43;;;;;;;7.67;4.75;;;;;;;13.80;61.21;99778.93;1786300;79;21439;-61
2021/09/04 02:31:10;;;;;;;8.65;5.37;;;;;;;13.80;61.24;99780.82;1785309;79;21945;-62
2021/09/04 02:33:37;;;;;;;14.07;4.97;;;;;;;13.80;61.24;99784.86;1785393;79;21500;-59
2021/09/04 02:36:05;;;;;;;11.40;4.95;;;;;;;13.79;61.26;99779.98;1781987;79;20877;-61
2021/09/04 02:38:32;;;;;;;7.15;4.58;;;;;;;13.78;61.43;99786.46;1785092;79;20979;-61
2021/09/04 02:41:00;;;;;;;8.23;4.65;;;;;;;13.79;61.52;99785.91;1786793;79;20971;-61
2021/09/04 02:43:28;;;;;;;;;;;;;;;13.78;61.57;99786.46;1787996;79;21150;-61
2021/09/04 02:45:55;;;;;;;6.47;3.95;;;;;;;13.81;61.57;99777.06;1782203;79;20091;-61
2021/09/04 02:48:22;;;;;;;7.67;4.40;;;;;;;13.81;61.62;99789.19;1786668;79;20975;-62
2021/09/04 02:50:49;;;;;;;8.53;4.70;;;;;;;13.83;61.66;99781.66;1785244;79;21507;-60
2021/09/04 02:53:15;;;;;;;9.90;5.20;;;;;;;13.86;61.77;99784.38;1783248;79;21000;-61
2021/09/04 02:55:44;;;;;;;8.90;4.40;;;;;;;13.89;61.73;99775.79;1784945;79;20913;-60
2021/09/04 02:58:11;;;;;;;10.08;4.95;;;;;;;13.94;61.69;99782.56;1784524;79;21560;-60
2021/09/04 03:00:40;;;;;;;10.98;4.37;;;;;;;13.99;61.68;99783.97;1781862;79;21023;-61
2021/09/04 03:03:09;;;;;;;9.15;4.37;;;;;;;14.05;61.70;99788.88;1786997;79;20966;-61
2021/09/04 03:05:38;;;;;;;7.83;4.40;;;;;;;14.12;61.63;99783.56;1785590;79;20989;-61
2021/09/04 03:08:06;;;;;;;9.83;4.42;;;;;;;14.16;61.69;99786.02;1785308;79;23579;-61
2021/09/04 03:10:33;;;;;;;11.80;5.60;;;;;;;14.22;61.69;99792.25;1783504;79;20936;-60
2021/09/04 03:13:01;;;;;;;8.68;4.55;;;;;;;14.24;61.38;99793.38;1783131;79;20921;-61
2021/09/04 03:15:28;;;;;;;8.53;4.55;;;;;;;14.22;61.11;99804.38;1791697;78;20868;-61
2021/09/04 03:17:55;;;;;;;8.35;4.90;;;;;;;14.20;61.18;99799.79;1801275;78;20995;-61
2021/09/04 03:20:23;;;;;;;16.75;5.58;;;;;;;14.16;61.16;99794.63;1799626;78;21112;-60
2021/09/04 03:22:51;;;;;;;10.00;5.22;;;;;;;14.14;61.14;99803.52;1802271;78;21481;-60
2021/09/04 03:25:19;;;;;;;12.73;5.47;;;;;;;14.12;61.13;99804.28;1801886;78;20952;-62
2021/09/04 03:27:47;;;;;;;11.83;4.55;;;;;;;14.09;61.30;99814.23;1798833;78;20920;-61
2021/09/04 03:30:15;;;;;;;9.78;4.58;;;;;;;14.09;61.44;99816.92;1800603;78;20995;-60
2021/09/04 03:32:42;;;;;;;10.93;5.22;;;;;;;14.08;61.47;99816.67;1802169;78;21134;-61
2021/09/04 03:35:10;;;;;;;19.23;5.60;;;;;;;14.07;61.54;99813.69;1800521;78;21086;-61
2021/09/04 03:37:36;;;;;;;14.75;6.03;;;;;;;14.08;61.65;99816.13;1802414;78;21323;-61
2021/09/04 03:40:07;;;;;;;8.68;4.87;;;;;;;14.09;61.68;99823.66;1801892;78;20990;-64
2021/09/04 03:42:33;;;;;;;;;;;;;;;14.13;61.78;99824.27;1804936;78;21450;-60
2021/09/04 03:45:01;;;;;;;7.40;4.62;;;;;;;14.17;61.75;99829.41;1804842;78;21919;-60
2021/09/04 03:47:30;;;;;;;11.28;4.80;;;;;;;14.21;61.80;99829.73;1798962;78;21398;-61
2021/09/04 03:49:58;;;;;;;8.48;4.83;;;;;;;14.25;61.71;99832.72;1803772;78;26822;-62
2021/09/04 03:52:25;;;;;;;8.35;4.35;;;;;;;14.31;61.63;99830.34;1799503;78;20949;-61
2021/09/04 03:54:51;;;;;;;6.87;4.45;;;;;;;14.35;61.55;99834.99;1800960;78;21042;-61
2021/09/04 03:57:19;;;;;;;9.85;4.90;;;;;;;14.37;61.48;99835.53;1801164;78;21145;-61
2021/09/04 03:59:45;;;;;;;6.58;4.12;;;;;;;14.38;61.44;99836.34;1801959;78;20943;-61
2021/09/04 04:02:13;;;;;;;9.58;4.67;;;;;;;14.41;61.34;99839.87;1801902;78;21033;-61
2021/09/04 04:04:40;;;;;;;8.48;4.85;;;;;;;14.42;61.28;99838.81;1799036;78;20928;-61
2021/09/04 04:07:09;;;;;;;7.60;4.80;;;;;;;14.43;61.27;99841.80;1801389;78;20876;-61
2021/09/04 04:09:36;;;;;;;10.48;5.08;;;;;;;14.45;61.24;99840.19;1800129;78;21825;-63
2021/09/04 04:12:04;;;;;;;7.85;4.47;;;;;;;14.48;61.20;99839.67;1801816;78;20975;-61
2021/09/04 04:14:32;;;;;;;8.08;4.03;;;;;;;14.54;61.12;99847.53;1802226;78;20979;-59
2021/09/04 04:16:58;;;;;;;8.90;4.85;;;;;;;14.66;61.01;99850.63;1799118;78;20976;-61
2021/09/04 04:19:25;;;;;;;10.32;4.92;;;;;;;14.78;60.80;99849.10;1800723;78;20995;-61
2021/09/04 04:21:52;;;;;;;8.47;4.70;;;;;;;14.89;60.56;99856.20;1801722;78;21073;-62
2021/09/04 04:24:20;;;;;;;11.88;5.50;;;;;;;14.94;60.47;99844.63;1802407;78;20924;-61
2021/09/04 04:26:47;;;;;;;11.93;4.67;;;;;;;14.99;60.48;99852.23;1799596;78;21014;-60
2021/09/04 04:29:15;;;;;;;11.85;5.92;;;;;;;15.04;60.47;99858.19;1800516;78;21030;-62
2021/09/04 04:31:44;;;;;;;13.40;6.65;;;;;;;15.10;60.38;99861.74;1801487;78;20947;-61
2021/09/04 04:34:11;;;;;;;13.40;6.53;;;;;;;15.18;60.37;99862.59;1802193;78;21220;-62
2021/09/04 04:36:39;;;;;;;10.93;5.85;;;;;;;15.46;60.06;99860.06;1802434;78;20939;-64
2021/09/04 04:39:06;;;;;;;12.13;6.30;;;;;;;16.26;59.08;99861.14;1801482;78;21097;-61
2021/09/04 04:41:32;;;;;;;9.25;4.92;;;;;;;17.46;56.73;99862.69;1802628;78;20943;-61
2021/09/04 04:44:00;;;;;;;11.73;5.53;;;;;;;18.76;53.69;99864.94;1803565;78;21016;-61
2021/09/04 04:46:26;;;;;;;11.30;5.17;;;;;;;20.09;50.25;99869.48;1799969;78;21890;-61
2021/09/04 04:48:53;;;;;;;9.40;4.83;;;;;;;21.30;47.14;99862.89;1800566;78;20865;-61
2021/09/04 04:51:20;;;;;;;11.43;5.45;;;;;;;22.35;44.32;99862.63;1803579;78;21343;-62
2021/09/04 04:53:48;;;;;;;10.72;6.10;;;;;;;22.99;42.26;99857.48;1801584;78;20924;-61
2021/09/04 04:56:16;;;;;;;12.63;8.65;;;;;;;23.19;41.32;99866.27;1802431;78;20972;-64
2021/09/04 04:58:43;;;;;;;9.25;4.87;;;;;;;23.46;40.80;99871.30;1804152;78;21907;-61
2021/09/04 05:01:09;;;;;;;7.60;5.08;;;;;;;23.40;40.21;99864.59;1801638;78;20951;-62
2021/09/04 05:03:37;;;;;;;9.50;4.67;;;;;;;22.91;40.67;99859.62;1799371;78;20840;-61
2021/09/04 05:06:04;;;;;;;6.12;4.42;;;;;;;22.31;41.53;99874.44;1800208;78;21534;-63
2021/09/04 05:08:31;;;;;;;12.15;4.80;;;;;;;21.70;42.54;99870.02;1803769;78;21005;-63
2021/09/04 05:10:57;;;;;;;7.10;4.80;;;;;;;21.13;43.52;99871.64;1802147;78;21150;-62
2021/09/04 05:13:27;;;;;;;8.75;4.90;;;;;;;20.61;44.68;99872.23;1802415;78;20979;-61
2021/09/04 05:15:53;;;;;;;8.58;5.25;;;;;;;20.16;45.63;99878.66;1798095;78;20976;-60
2021/09/04 05:18:21;;;;;;;7.22;4.55;;;;;;;19.82;46.53;99880.45;1785261;79;20995;-61
2021/09/04 05:20:48;;;;;;;10.08;4.87;;;;;;;19.58;47.00;99878.54;1783400;79;21472;-61
2021/09/04 05:23:15;;;;;;;7.93;4.83;;;;;;;19.26;47.73;99890.84;1784032;79;21129;-67
2021/09/04 05:25:43;;;;;;;8.70;5.15;;;;;;;18.90;48.48;99894.44;1788366;79;20956;-63
2021/09/04 05:28:11;;;;;;;9.33;5.67;;;;;;;18.56;49.40;99895.23;1785002;78;20945;-65
2021/09/04 05:30:38;;;;;;;7.80;5.15;;;;;;;18.68;50.07;99894.34;1786440;79;20992;-61
2021/09/04 05:33:05;;;;;;;8.65;4.53;;;;;;;19.57;49.06;99893.22;1785360;79;20952;-63
2021/09/04 05:35:31;;;;;;;8.60;5.72;;;;;;;20.83;46.69;99894.78;1784103;79;21783;-61
2021/09/04 05:37:57;;;;;;;11.30;5.15;;;;;;;21.75;44.33;99899.11;1784218;79;21097;-62
2021/09/04 05:40:24;;;;;;;8.55;4.78;;;;;;;22.08;43.33;99898.16;1783715;79;20920;-61
2021/09/04 05:42:51;;;;;;;8.43;5.30;;;;;;;22.05;43.18;99903.13;1785663;79;20964;-62
2021/09/04 05:45:18;;;;;;;9.20;5.17;;;;;;;21.93;43.19;99901.45;1788667;79;20968;-64
2021/09/04 05:47:45;;;;;;;11.22;6.47;;;;;;;21.78;43.28;99905.88;1783597;79;21037;-62
2021/09/04 05:50:11;;;;;;;9.43;5.70;;;;;;;21.65;43.55;99907.50;1789612;79;20972;-61
2021/09/04 05:52:38;;;;;;;9.20;5.75;;;;;;;21.53;43.84;99921.64;1787310;79;21621;-62
2021/09/04 05:55:05;;;;;;;9.98;4.70;;;;;;;21.47;44.25;99918.73;1785169;79;21047;-60
2021/09/04 05:57:31;;;;;;;11.22;5.42;;;;;;;21.58;44.33;99917.44;1784219;79;21515;-62
2021/09/04 05:59:59;;;;;;;11.22;5.28;;;;;;;21.72;44.09;99928.36;1785731;78;20822;-62
2021/09/04 06:02:26;;;;;;;8.00;4.67;;;;;;;22.11;43.80;99918.80;1784329;79;21549;-62
2021/09/04 06:04:52;;;;;;;13.80;4.75;;;;;;;22.51;42.69;99915.48;1784787;79;20925;-62
2021/09/04 06:07:19;;;;;;;8.95;4.90;;;;;;;22.69;42.51;99917.25;1785689;79;21510;-62
2021/09/04 06:09:46;;;;;;;8.00;5.05;;;;;;;22.80;42.00;99911.53;1782889;79;20982;-62
2021/09/04 06:12:14;;;;;;;8.15;4.75;;;;;;;22.67;42.01;99912.67;1785729;79;20897;-62
2021/09/04 06:14:42;;;;;;;7.00;4.55;;;;;;;22.43;42.53;99915.67;1783409;79;22161;-65
2021/09/04 06:17:09;;;;;;;7.70;5.30;;;;;;;22.27;42.97;99921.21;1796380;78;20959;-61
2021/09/04 06:19:35;;;;;;;7.85;5.12;;;;;;;22.20;43.17;99925.17;1801799;78;20952;-65
2021/09/04 06:22:03;;;;;;;6.05;4.65;;;;;;;22.23;43.37;99925.09;1802121;78;21045;-62
2021/09/04 06:24:29;;;;;;;10.75;5.30;;;;;;;22.19;43.55;99931.73;1802273;78;21129;-62
2021/09/04 06:26:56;;;;;;;11.57;5.75;;;;;;;22.21;43.60;99925.41;1801990;78;20915;-62
2021/09/04 06:29:24;;;;;;;9.63;5.60;;;;;;;22.15;43.41;99935.39;1802265;78;20995;-61
2021/09/04 06:31:51;;;;;;;8.30;5.67;;;;;;;22.11;43.51;99933.81;1801820;78;21485;-62
2021/09/04 06:34:18;;;;;;;7.92;5.17;;;;;;;22.21;43.43;99938.25;1801296;78;20943;-63
2021/09/04 06:36:44;;;;;;;9.83;4.95;;;;;;;22.60;43.20;99936.88;1803454;78;21085;-61
2021/09/04 06:39:11;;;;;;;10.60;4.92;;;;;;;23.29;41.84;99943.92;1802010;78;21066;-62
2021/09/04 06:41:38;;;;;;;12.70;5.33;;;;;;;24.00;40.45;99948.58;1802663;78;21425;-61
2021/09/04 06:44:05;;;;;;;7.75;5.30;;;;;;;24.71;39.36;99949.48;1801990;78;21007;-62
2021/09/04 06:46:33;;;;;;;12.30;5.50;;;;;;;25.07;38.04;99950.45;1798692;78;20976;-62
2021/09/04 06:49:00;;;;;;;7.05;4.60;;;;;;;24.76;37.88;99955.58;1803510;78;22961;-63
2021/09/04 06:51:27;;;;;;;7.45;4.47;;;;;;;24.08;39.12;99964.20;1806379;78;21012;-62
2021/09/04 06:53:54;;;;;;;5.58;4.37;;;;;;;23.64;39.79;99967.33;1798606;78;20912;-63
2021/09/04 06:56:21;;;;;;;7.30;4.78;;;;;;;23.44;40.55;99971.45;1802106;78;21533;-62
2021/09/04 06:58:47;;;;;;;8.43;4.80;;;;;;;23.37;40.58;99980.08;1811096;78;20873;-60
2021/09/04 07:01:14;;;;;;;6.90;4.95;;;;;;;23.07;41.21;99981.09;1802873;78;21761;-61
2021/09/04 07:03:40;;;;;;;6.17;4.40;;;;;;;22.63;42.17;99984.05;1801894;78;20959;-62
2021/09/04 07:06:08;;;;;;;8.48;5.75;;;;;;;22.18;42.97;99988.00;1802140;78;20909;-62
2021/09/04 07:08:34;;;;;;;11.83;4.97;;;;;;;21.73;44.01;99982.34;1801593;78;20970;-61
2021/09/04 07:11:01;;;;;;;10.38;5.75;;;;;;;21.27;44.97;99996.23;1801083;78;20951;-61
2021/09/04 07:13:28;;;;;;;8.23;4.70;;;;;;;20.82;46.22;100004.29;1798751;78;21152;-61
2021/09/04 07:15:54;;;;;;;8.05;4.35;;;;;;;20.37;47.49;100002.44;1802048;78;20956;-62
2021/09/04 07:18:21;;;;;;;9.93;4.72;;;;;;;19.75;48.52;100002.33;1776552;79;21644;-61
2021/09/04 07:20:48;;;;;;;6.95;3.77;;;;;;;19.30;49.50;100003.03;1796191;79;20983;-61
2021/09/04 07:23:14;;;;;;;8.03;4.17;;;;;;;18.96;50.09;100015.51;1796979;79;21015;-63
2021/09/04 07:25:41;;;;;;;7.00;3.67;;;;;;;18.77;50.73;100017.25;1795567;79;21749;-62
2021/09/04 07:28:07;;;;;;;6.87;4.67;;;;;;;18.71;51.39;100013.22;1795204;79;20904;-62
2021/09/04 07:30:34;;;;;;;8.20;4.80;;;;;;;18.69;51.72;100011.87;1794333;79;21592;-61
2021/09/04 07:33:01;;;;;;;8.08;5.15;;;;;;;18.69;52.30;100009.16;1799333;79;20948;-64
2021/09/04 07:35:27;;;;;;;9.65;4.50;;;;;;;18.66;52.26;100011.88;1795051;79;21018;-62
2021/09/04 07:37:53;;;;;;;7.50;4.12;;;;;;;18.64;52.75;100016.78;1794562;79;21755;-62
2021/09/04 07:40:21;;;;;;;8.70;3.70;;;;;;;18.66;52.47;100020.58;1795255;79;20990;-60
2021/09/04 07:42:47;;;;;;;9.98;4.15;;;;;;;18.66;52.40;100019.22;1796464;79;20971;-61
2021/09/04 07:45:13;;;;;;;7.47;3.50;;;;;;;18.73;52.43;100023.24;1796172;78;21008;-62
2021/09/04 07:47:40;;;;;;;6.33;3.25;;;;;;;18.86;52.03;100016.94;1796189;79;20944;-61
2021/09/04 07:50:08;;;;;;;3.90;2.50;;;;;;;18.97;51.73;100014.98;1793916;79;21574;-62
2021/09/04 07:52:34;;;;;;;4.78;2.42;;;;;;;19.06;51.43;100025.50;1796766;79;21537;-61
2021/09/04 07:55:01;;;;;;;5.67;2.77;;;;;;;19.04;50.71;100020.35;1796300;79;20948;-62
2021/09/04 07:57:27;;;;;;;3.72;2.37;;;;;;;18.93;50.79;100026.14;1795701;79;20885;-61
2021/09/04 07:59:56;;;;;;;4.47;2.52;;;;;;;18.72;51.07;100038.45;1795158;78;21573;-61
2021/09/04 08:02:23;;;;;;;4.37;2.70;;;;;;;18.55;51.47;100038.28;1792955;79;23317;-64
2021/09/04 08:04:49;;;;;;;2.95;2.47;;;;;;;18.38;51.95;100031.03;1797867;79;21526;-64
2021/09/04 08:07:17;;;;;;;5.97;2.67;;;;;;;18.21;52.32;100036.78;1796141;79;21051;-64
2021/09/04 08:09:43;;;;;;;4.20;2.25;;;;;;;18.04;52.78;100042.55;1792878;78;20959;-62
2021/09/04 08:12:10;;;;;;;6.28;2.00;;;;;;;17.99;52.88;100052.87;1795359;79;20952;-63
2021/09/04 08:14:36;;;;;;;7.60;2.12;;;;;;;18.00;52.75;100051.77;1793717;79;21226;-66
2021/09/04 08:17:03;;;;;;;4.75;2.00;;;;;;;17.96;52.56;100053.42;1793834;78;21035;-63
2021/09/04 08:19:31;;;;;;;4.87;2.30;;;;;;;17.97;52.84;100053.67;1784186;78;20972;-63
2021/09/04 08:21:58;;;;;;;5.03;2.20;;;;;;;18.00;52.73;100055.83;1784803;79;20980;-63
2021/09/04 08:24:24;;;;;;;9.05;2.98;;;;;;;17.97;52.46;100051.52;1787429;79;21483;-61
2021/09/04 08:26:51;;;;;;;6.37;3.70;;;;;;;17.88;52.62;100044.45;1785722;79;21076;-62
2021/09/04 08:29:17;;;;;;;2.95;1.67;;;;;;;17.87;52.37;100046.88;1786319;79;20925;-62
2021/09/04 08:31:43;;;;;;;2.50;1.57;;;;;;;17.85;51.50;100058.00;1785224;79;21537;-62
2021/09/04 08:34:13;;;;;;;2.53;2.03;;;;;;;17.82;51.05;100056.40;1785714;79;21522;-64
2021/09/04 08:36:39;;;;;;;2.67;1.65;;;;;;;17.84;51.32;100060.99;1785555;79;20984;-63
2021/09/04 08:39:06;;;;;;;3.00;1.67;;;;;;;17.96;51.49;100057.48;1781858;79;21974;-61
2021/09/04 08:41:33;;;;;;;3.85;1.72;;;;;;;18.11;50.83;100058.52;1786454;79;21058;-62
2021/09/04 08:44:00;;;;;;;3.25;1.52;;;;;;;18.22;50.23;100058.76;1772847;79;20960;-63
2021/09/04 08:46:30;;;;;;;2.92;1.60;;;;;;;18.28;49.80;100060.91;1785224;79;20992;-61
2021/09/04 08:48:56;;;;;;;2.72;1.82;;;;;;;18.26;48.95;100054.97;1769809;79;21664;-61
2021/09/04 08:51:23;;;;;;;4.35;1.30;;;;;;;18.15;49.19;100056.36;1784250;79;21153;-62
2021/09/04 08:53:49;;;;;;;4.78;1.70;;;;;;;18.01;49.04;100057.47;1784451;79;21463;-61
2021/09/04 08:56:16;;;;;;;4.83;1.30;;;;;;;17.82;49.49;100055.05;1785815;79;20917;-65
2021/09/04 08:58:42;;;;;;;2.62;1.60;;;;;;;17.67;49.77;100057.23;1785287;79;21102;-62
2021/09/04 09:01:19;;;;;;;7.92;1.62;;;;;;;17.60;50.38;100056.70;1782550;79;22113;-62
2021/09/04 09:03:46;;;;;;;4.10;1.40;;;;;;;17.67;50.76;100057.23;1781576;79;21109;-62
2021/09/04 09:06:29;;;;;;;1.62;1.15;;;;;;;17.80;50.31;100060.73;1789392;79;20964;-60
2021/09/04 09:08:56;;;;;;;2.33;1.37;;;;;;;17.91;49.28;100057.48;1787631;78;22022;-62
2021/09/04 09:11:25;;;;;;;2.55;1.60;;;;;;;17.93;49.30;100059.40;1785896;78;21599;-62
2021/09/04 09:13:54;;;;;;;2.12;1.37;;;;;;;18.08;49.24;100061.26;1784860;79;21004;-62
2021/09/04 09:16:23;;;;;;;3.30;1.65;;;;;;;18.25;49.00;100064.98;1785109;79;21109;-61
2021/09/04 09:18:57;;;;;;;1.52;1.20;;;;;;;18.40;47.98;100064.11;1800884;78;20999;-63
2021/09/04 09:21:27;;;;;;;3.02;2.10;;;;;;;18.45;47.91;100068.17;1803048;78;21002;-61
2021/09/04 09:24:15;;;;;;;3.87;1.60;;;;;;;18.48;47.89;100058.13;1802106;78;21055;-62
2021/09/04 09:26:51;;;;;;;3.05;1.98;;;;;;;18.53;47.57;100065.42;1801576;78;20932;-61
2021/09/04 09:29:26;;;;;;;2.52;1.52;;;;;;;18.61;47.21;100068.09;1804931;78;21126;-61
2021/09/04 09:32:12;;;;;;;2.62;1.62;;;;;;;18.58;46.53;100073.56;1803346;78;20956;-62
2021/09/04 09:34:44;;;;;;;1.82;1.30;;;;;;;18.51;46.76;100083.34;1804582;78;22108;-61
2021/09/04 09:37:12;;;;;;;1.90;1.15;;;;;;;18.53;47.12;100078.99;1802975;78;20937;-61
2021/09/04 09:39:40;;;;;;;;;;;;;;;18.66;47.19;100085.17;1805716;78;21015;-61
2021/09/04 09:42:09;;;;;;;4.10;1.70;;;;;;;18.86;46.97;100084.83;1802738;78;21754;-61
2021/09/04 09:44:37;;;;;;;2.98;1.72;;;;;;;19.02;46.12;100080.12;1801298;78;20907;-61
2021/09/04 09:47:09;;;;;;;5.00;2.47;;;;;;;19.11;45.10;100095.27;1802388;78;21498;-61
2021/09/04 09:49:41;;;;;;;3.30;2.08;;;;;;;19.14;45.18;100092.82;1801171;78;20953;-61
2021/09/04 09:52:14;;;;;;;2.77;1.77;;;;;;;19.17;45.01;100095.50;1798823;78;21005;-62
2021/09/04 09:54:41;;;;;;;3.80;2.25;;;;;;;19.20;45.05;100099.84;1802399;78;21152;-62
2021/09/04 09:57:10;;;;;;;3.33;2.25;;;;;;;19.24;45.04;100089.20;1800923;78;20880;-63
2021/09/04 09:59:43;;;;;;;2.67;1.93;;;;;;;19.32;44.35;100087.25;1801487;78;21030;-62
2021/09/04 10:02:12;;;;;;;4.15;1.98;;;;;;;19.37;44.40;100097.27;1801515;78;20972;-62
2021/09/04 10:04:40;;;;;;;6.15;2.80;;;;;;;19.45;43.66;100096.67;1801294;78;20999;-61
2021/09/04 10:07:09;;;;;;;2.45;1.80;;;;;;;19.47;43.85;100099.11;1802922;78;21118;-61
2021/09/04 10:09:38;;;;;;;3.50;2.25;;;;;;;19.48;43.45;100101.55;1801944;78;21410;-61
2021/09/04 10:12:05;;;;;;;;;;;;;;;19.50;44.01;100093.91;1802337;78;20975;-62
2021/09/04 10:14:32;;;;;;;2.00;1.67;;;;;;;19.64;43.59;100098.16;1801051;78;20070;-61
2021/09/04 10:17:02;;;;;;;4.10;2.00;;;;;;;19.73;43.27;100095.07;1801390;78;20929;-61
2021/09/04 10:19:30;;;;;;;;;;;;;;;19.68;43.69;100098.38;1805977;78;21121;-61
2021/09/04 10:22:02;;;;;;;5.10;3.47;;;;;;;19.69;43.10;100102.17;1802960;78;20124;-61
2021/09/04 10:24:47;;;;;;;3.17;2.27;;;;;;;19.64;43.17;100098.16;1799800;78;20948;-62
2021/09/04 10:27:30;;;;;;;3.08;1.90;;;;;;;19.60;42.97;100111.48;1798582;78;21067;-63
2021/09/04 10:29:57;;;;;;;3.20;1.92;;;;;;;19.49;43.17;100109.94;1782619;78;21003;-61
2021/09/04 10:32:24;;;;;;;4.72;1.85;;;;;;;19.37;43.57;100114.38;1801773;78;21903;-61
2021/09/04 10:35:05;;;;;;;3.58;1.82;;;;;;;19.39;42.99;100108.66;1799340;78;20904;-62
2021/09/04 10:37:32;;;;;;;2.47;1.85;;;;;;;19.40;43.22;100112.48;1800445;78;21600;-61
2021/09/04 10:40:03;;;;;;;3.12;1.80;;;;;;;19.42;42.76;100104.84;1761626;78;20880;-62
2021/09/04 10:42:41;;;;;;;3.58;1.70;;;;;;;19.39;41.95;100103.22;1805782;78;20998;-62
2021/09/04 10:45:17;;;;;;;2.37;1.57;;;;;;;19.26;41.64;100109.58;1801967;78;21856;-62
2021/09/04 10:47:55;;;;;;;1.25;1.10;;;;;;;19.16;42.01;100109.64;1804163;78;21497;-62
2021/09/04 10:50:24;;;;;;;2.27;1.20;;;;;;;19.12;41.83;100109.13;1803359;78;20928;-61
2021/09/04 10:52:57;;;;;;;1.07;0.98;;;;;;;19.13;42.13;100109.41;1802050;78;20993;-62
2021/09/04 10:55:31;;;;;;;1.57;1.10;;;;;;;19.15;42.38;100106.65;1803332;78;20967;-61
2021/09/04 10:58:17;;;;;;;3.50;1.22;;;;;;;19.19;42.19;100103.64;1805166;78;21148;-65
2021/09/04 11:00:49;;;;;;;6.40;1.27;;;;;;;19.21;41.74;100115.58;1802970;78;21443;-62
2021/09/04 11:03:18;;;;;;;2.60;1.60;;;;;;;19.08;41.42;100109.70;1802670;78;20916;-66
2021/09/04 11:06:01;;;;;;;4.33;2.27;;;;;;;19.00;41.80;100117.06;1803986;78;21010;-63
2021/09/04 11:08:37;;;;;;;4.83;3.00;;;;;;;18.99;42.07;100114.63;1800878;78;21401;-65
2021/09/04 11:11:31;;;;;;;2.90;1.90;;;;;;;18.99;42.23;100122.25;1806652;78;21164;-63
2021/09/04 11:14:01;;;;;;;3.30;1.52;;;;;;;18.94;42.30;100123.62;1801341;78;21898;-61
2021/09/04 11:16:40;;;;;;;3.00;1.40;;;;;;;18.83;42.36;100127.45;1798461;78;21382;-61
2021/09/04 11:19:21;;;;;;;1.57;1.00;;;;;;;18.82;42.60;100128.56;1803618;78;20979;-62
2021/09/04 11:22:06;;;;;;;1.75;1.15;;;;;;;18.88;42.90;100130.18;1801030;78;21528;-62
2021/09/04 11:24:43;;;;;;;3.70;1.30;;;;;;;18.89;42.50;100127.19;1802113;78;21161;-62
2021/09/04 11:27:14;;;;;;;2.20;1.02;;;;;;;18.87;42.04;100131.27;1801512;78;21510;-62
2021/09/04 11:29:47;;;;;;;4.95;1.10;;;;;;;18.76;41.67;100126.41;1801831;78;20991;-62
2021/09/04 11:32:16;;;;;;;2.33;1.32;;;;;;;18.64;42.61;100136.23;1803553;78;21067;-64
2021/09/04 11:34:55;;;;;;;5.72;2.10;;;;;;;18.63;42.63;100133.80;1800079;78;21040;-64